createdAt,value
2019-02-05T00:00:56.885Z,1021.71
2019-02-05T00:01:56.875Z,1021.69
2019-02-05T00:02:56.867Z,1021.71
2019-02-05T00:03:56.854Z,1021.66
2019-02-05T00:04:56.843Z,1021.67
2019-02-05T00:05:56.836Z,1021.57
2019-02-05T00:06:56.826Z,1021.58
2019-02-05T00:07:56.811Z,1021.58
2019-02-05T00:08:56.808Z,1021.61
2019-02-05T00:09:56.792Z,1021.57
2019-02-05T00:10:56.779Z,1021.64
2019-02-05T00:11:56.773Z,1021.58
2019-02-05T00:12:56.756Z,1021.58
2019-02-05T00:13:56.749Z,1021.62
2019-02-05T00:14:56.734Z,1021.64
2019-02-05T00:15:56.723Z,1021.60
2019-02-05T00:16:56.716Z,1021.57
2019-02-05T00:17:56.700Z,1021.57
2019-02-05T00:18:56.692Z,1021.56
2019-02-05T00:19:56.684Z,1021.56
2019-02-05T00:20:56.668Z,1021.56
2019-02-05T00:21:56.657Z,1021.55
2019-02-05T00:22:56.647Z,1021.56
2019-02-05T00:23:56.649Z,1021.60
2019-02-05T00:24:56.627Z,1021.57
2019-02-05T00:26:05.818Z,1021.61
2019-02-05T00:26:57.602Z,1021.55
2019-02-05T00:27:56.596Z,1021.57
2019-02-05T00:28:56.584Z,1021.52
2019-02-05T00:29:56.571Z,1021.55
2019-02-05T00:30:56.567Z,1021.53
2019-02-05T00:31:56.549Z,1021.51
2019-02-05T00:32:56.607Z,1021.52
2019-02-05T00:33:56.529Z,1021.51
2019-02-05T00:34:56.518Z,1021.56
2019-02-05T00:35:56.506Z,1021.50
2019-02-05T00:36:56.503Z,1021.48
2019-02-05T00:37:56.489Z,1021.47
2019-02-05T00:38:56.474Z,1021.49
2019-02-05T00:39:56.462Z,1021.44
2019-02-05T00:40:56.459Z,1021.48
2019-02-05T00:41:56.443Z,1021.46
2019-02-05T00:42:56.435Z,1021.47
2019-02-05T00:43:56.423Z,1021.47
2019-02-05T00:44:56.413Z,1021.48
2019-02-05T00:45:56.399Z,1021.46
2019-02-05T00:46:56.391Z,1021.42
2019-02-05T00:47:56.378Z,1021.45
2019-02-05T00:48:56.367Z,1021.49
2019-02-05T00:49:56.356Z,1021.46
2019-02-05T00:50:56.353Z,1021.45
2019-02-05T00:51:56.336Z,1021.46
2019-02-05T00:52:56.331Z,1021.40
2019-02-05T00:53:56.313Z,1021.39
2019-02-05T00:54:56.302Z,1021.34
2019-02-05T00:55:56.290Z,1021.30
2019-02-05T00:56:56.280Z,1021.37
2019-02-05T00:57:56.274Z,1021.33
2019-02-05T00:58:56.260Z,1021.32
2019-02-05T00:59:56.251Z,1021.27
2019-02-05T01:00:56.238Z,1021.29
2019-02-05T01:01:56.225Z,1021.28
2019-02-05T01:02:56.217Z,1021.35
2019-02-05T01:03:56.238Z,1021.28
2019-02-05T01:04:56.198Z,1021.32
2019-02-05T01:05:56.191Z,1021.31
2019-02-05T01:06:56.171Z,1021.29
2019-02-05T01:07:56.161Z,1021.26
2019-02-05T01:08:56.150Z,1021.26
2019-02-05T01:09:56.139Z,1021.28
2019-02-05T01:10:56.128Z,1021.29
2019-02-05T01:11:56.118Z,1021.27
2019-02-05T01:12:56.109Z,1021.24
2019-02-05T01:13:56.095Z,1021.25
2019-02-05T01:14:56.085Z,1021.25
2019-02-05T01:15:56.075Z,1021.25
2019-02-05T01:16:56.066Z,1021.25
2019-02-05T01:17:56.053Z,1021.23
2019-02-05T01:18:56.043Z,1021.19
2019-02-05T01:19:56.034Z,1021.18
2019-02-05T01:20:56.021Z,1021.20
2019-02-05T01:21:56.014Z,1021.14
2019-02-05T01:22:56.023Z,1021.13
2019-02-05T01:23:55.988Z,1021.12
2019-02-05T01:24:55.978Z,1021.11
2019-02-05T01:25:55.970Z,1021.10
2019-02-05T01:26:55.957Z,1021.03
2019-02-05T01:27:55.951Z,1021.07
2019-02-05T01:28:55.934Z,1021.05
2019-02-05T01:29:55.924Z,1021.08
2019-02-05T01:30:55.913Z,1021.06
2019-02-05T01:31:55.902Z,1020.99
2019-02-05T01:32:55.895Z,1021.00
2019-02-05T01:33:55.889Z,1020.98
2019-02-05T01:34:55.870Z,1020.92
2019-02-05T01:35:55.859Z,1020.89
2019-02-05T01:36:55.851Z,1020.88
2019-02-05T01:37:55.839Z,1020.88
2019-02-05T01:38:55.829Z,1020.93
2019-02-05T01:39:55.830Z,1020.85
2019-02-05T01:40:55.804Z,1020.89
2019-02-05T01:41:55.794Z,1020.93
2019-02-05T01:42:55.783Z,1020.92
2019-02-05T01:43:55.771Z,1020.87
2019-02-05T01:44:55.761Z,1020.88
2019-02-05T01:45:55.754Z,1020.78
2019-02-05T01:46:55.745Z,1020.81
2019-02-05T01:47:55.730Z,1020.76
2019-02-05T01:48:55.717Z,1020.77
2019-02-05T01:49:55.709Z,1020.78
2019-02-05T01:50:55.699Z,1020.74
2019-02-05T01:51:55.686Z,1020.73
2019-02-05T01:52:55.676Z,1020.74
2019-02-05T01:53:55.667Z,1020.80
2019-02-05T01:54:55.668Z,1020.73
2019-02-05T01:55:55.654Z,1020.78
2019-02-05T01:56:55.638Z,1020.78
2019-02-05T01:57:55.622Z,1020.77
2019-02-05T01:58:55.610Z,1020.79
2019-02-05T01:59:55.600Z,1020.80
2019-02-05T02:00:55.701Z,1020.73
2019-02-05T02:01:55.585Z,1020.65
2019-02-05T02:02:55.590Z,1020.68
2019-02-05T02:03:55.556Z,1020.70
2019-02-05T02:04:55.545Z,1020.70
2019-02-05T02:05:55.543Z,1020.60
2019-02-05T02:06:55.534Z,1020.58
2019-02-05T02:07:55.521Z,1020.59
2019-02-05T02:08:55.521Z,1020.55
2019-02-05T02:09:55.491Z,1020.57
2019-02-05T02:10:55.481Z,1020.57
2019-02-05T02:11:55.471Z,1020.56
2019-02-05T02:12:55.460Z,1020.52
2019-02-05T02:13:55.455Z,1020.53
2019-02-05T02:14:55.438Z,1020.51
2019-02-05T02:15:55.428Z,1020.50
2019-02-05T02:16:55.417Z,1020.49
2019-02-05T02:17:55.407Z,1020.47
2019-02-05T02:18:55.404Z,1020.50
2019-02-05T02:19:55.390Z,1020.45
2019-02-05T02:20:55.375Z,1020.48
2019-02-05T02:21:55.364Z,1020.44
2019-02-05T02:22:55.352Z,1020.47
2019-02-05T02:23:55.342Z,1020.49
2019-02-05T02:24:55.340Z,1020.49
2019-02-05T02:25:55.326Z,1020.44
2019-02-05T02:26:55.310Z,1020.47
2019-02-05T02:27:55.299Z,1020.45
2019-02-05T02:28:55.288Z,1020.40
2019-02-05T02:29:55.278Z,1020.49
2019-02-05T02:30:55.281Z,1020.44
2019-02-05T02:31:55.261Z,1020.50
2019-02-05T02:32:55.252Z,1020.46
2019-02-05T02:33:55.236Z,1020.53
2019-02-05T02:34:55.225Z,1020.51
2019-02-05T02:35:55.215Z,1020.45
2019-02-05T02:36:55.206Z,1020.51
2019-02-05T02:37:55.200Z,1020.52
2019-02-05T02:38:55.182Z,1020.45
2019-02-05T02:39:55.169Z,1020.46
2019-02-05T02:40:55.160Z,1020.45
2019-02-05T02:41:55.150Z,1020.45
2019-02-05T02:42:55.139Z,1020.43
2019-02-05T02:43:55.134Z,1020.40
2019-02-05T02:44:55.118Z,1020.43
2019-02-05T02:45:55.114Z,1020.47
2019-02-05T02:46:55.096Z,1020.49
2019-02-05T02:47:55.088Z,1020.47
2019-02-05T02:48:55.077Z,1020.49
2019-02-05T02:49:55.072Z,1020.43
2019-02-05T02:50:55.055Z,1020.41
2019-02-05T02:51:55.047Z,1020.50
2019-02-05T02:52:55.033Z,1020.43
2019-02-05T02:53:55.022Z,1020.39
2019-02-05T02:54:55.014Z,1020.43
2019-02-05T02:55:55.015Z,1020.45
2019-02-05T02:57:04.594Z,1020.48
2019-02-05T02:57:55.980Z,1020.52
2019-02-05T02:58:54.991Z,1020.50
2019-02-05T02:59:54.967Z,1020.50
2019-02-05T03:00:54.951Z,1020.49
2019-02-05T03:01:54.945Z,1020.44
2019-02-05T03:02:54.927Z,1020.46
2019-02-05T03:03:54.959Z,1020.46
2019-02-05T03:04:54.923Z,1020.45
2019-02-05T03:05:54.891Z,1020.47
2019-02-05T03:06:54.886Z,1020.49
2019-02-05T03:07:54.870Z,1020.51
2019-02-05T03:08:55.026Z,1020.55
2019-02-05T03:09:54.848Z,1020.55
2019-02-05T03:10:54.839Z,1020.62
2019-02-05T03:11:54.830Z,1020.63
2019-02-05T03:12:54.823Z,1020.64
2019-02-05T03:13:54.806Z,1020.62
2019-02-05T03:14:54.801Z,1020.64
2019-02-05T03:15:54.784Z,1020.66
2019-02-05T03:16:54.793Z,1020.68
2019-02-05T03:17:54.765Z,1020.67
2019-02-05T03:18:54.752Z,1020.67
2019-02-05T03:19:54.741Z,1020.66
2019-02-05T03:20:54.732Z,1020.61
2019-02-05T03:21:54.726Z,1020.62
2019-02-05T03:22:54.713Z,1020.59
2019-02-05T03:23:54.699Z,1020.63
2019-02-05T03:24:54.691Z,1020.60
2019-02-05T03:25:54.677Z,1020.58
2019-02-05T03:26:54.667Z,1020.59
2019-02-05T03:27:54.656Z,1020.55
2019-02-05T03:28:54.645Z,1020.56
2019-02-05T03:29:54.634Z,1020.55
2019-02-05T03:30:54.628Z,1020.55
2019-02-05T03:31:54.615Z,1020.52
2019-02-05T03:32:54.604Z,1020.52
2019-02-05T03:33:54.605Z,1020.55
2019-02-05T03:34:54.599Z,1020.53
2019-02-05T03:35:54.571Z,1020.48
2019-02-05T03:36:54.564Z,1020.49
2019-02-05T03:37:54.560Z,1020.45
2019-02-05T03:38:54.541Z,1020.48
2019-02-05T03:39:54.541Z,1020.48
2019-02-05T03:40:54.524Z,1020.41
2019-02-05T03:41:54.508Z,1020.48
2019-02-05T03:42:54.508Z,1020.46
2019-02-05T03:43:54.486Z,1020.52
2019-02-05T03:44:54.474Z,1020.50
2019-02-05T03:45:54.465Z,1020.53
2019-02-05T03:46:54.453Z,1020.52
2019-02-05T03:47:54.445Z,1020.47
2019-02-05T03:48:54.431Z,1020.51
2019-02-05T03:49:54.420Z,1020.54
2019-02-05T03:50:54.414Z,1020.54
2019-02-05T03:51:54.399Z,1020.50
2019-02-05T03:52:54.390Z,1020.45
2019-02-05T03:53:54.379Z,1020.41
2019-02-05T03:54:54.366Z,1020.46
2019-02-05T03:55:54.357Z,1020.47
2019-02-05T03:56:54.359Z,1020.44
2019-02-05T03:57:54.335Z,1020.43
2019-02-05T03:58:54.324Z,1020.44
2019-02-05T03:59:54.315Z,1020.43
2019-02-05T04:00:54.305Z,1020.42
2019-02-05T04:01:54.293Z,1020.41
2019-02-05T04:02:54.283Z,1020.42
2019-02-05T04:03:54.284Z,1020.45
2019-02-05T04:04:54.259Z,1020.49
2019-02-05T04:05:54.248Z,1020.44
2019-02-05T04:06:54.239Z,1020.44
2019-02-05T04:07:54.227Z,1020.44
2019-02-05T04:08:54.216Z,1020.42
2019-02-05T04:09:54.207Z,1020.39
2019-02-05T04:10:54.196Z,1020.41
2019-02-05T04:11:54.193Z,1020.39
2019-02-05T04:12:54.173Z,1020.37
2019-02-05T04:13:54.173Z,1020.38
2019-02-05T04:14:54.153Z,1020.40
2019-02-05T04:15:54.142Z,1020.44
2019-02-05T04:16:54.137Z,1020.36
2019-02-05T04:17:54.138Z,1020.35
2019-02-05T04:18:54.118Z,1020.34
2019-02-05T04:19:54.098Z,1020.37
2019-02-05T04:20:54.088Z,1020.41
2019-02-05T04:21:54.083Z,1020.40
2019-02-05T04:22:54.065Z,1020.45
2019-02-05T04:23:54.060Z,1020.43
2019-02-05T04:24:54.046Z,1020.41
2019-02-05T04:25:54.033Z,1020.41
2019-02-05T04:26:54.023Z,1020.39
2019-02-05T04:27:54.012Z,1020.41
2019-02-05T04:28:54.004Z,1020.39
2019-02-05T04:29:53.990Z,1020.42
2019-02-05T04:30:54.091Z,1020.39
2019-02-05T04:31:53.971Z,1020.36
2019-02-05T04:32:53.958Z,1020.36
2019-02-05T04:33:53.948Z,1020.37
2019-02-05T04:34:53.941Z,1020.37
2019-02-05T04:35:53.933Z,1020.32
2019-02-05T04:36:53.923Z,1020.34
2019-02-05T04:37:53.905Z,1020.29
2019-02-05T04:38:53.894Z,1020.30
2019-02-05T04:39:53.904Z,1020.32
2019-02-05T04:40:53.873Z,1020.32
2019-02-05T04:41:53.872Z,1020.33
2019-02-05T04:42:53.865Z,1020.28
2019-02-05T04:43:53.839Z,1020.29
2019-02-05T04:44:53.828Z,1020.24
2019-02-05T04:45:53.820Z,1020.24
2019-02-05T04:46:53.810Z,1020.19
2019-02-05T04:47:53.801Z,1020.22
2019-02-05T04:48:53.786Z,1020.13
2019-02-05T04:49:53.776Z,1020.12
2019-02-05T04:50:53.766Z,1020.12
2019-02-05T04:51:53.755Z,1020.15
2019-02-05T04:52:53.746Z,1020.15
2019-02-05T04:53:53.749Z,1020.17
2019-02-05T04:54:53.729Z,1020.19
2019-02-05T04:55:53.713Z,1020.17
2019-02-05T04:56:53.700Z,1020.24
2019-02-05T04:57:57.969Z,1020.26
2019-02-05T04:58:54.681Z,1020.32
2019-02-05T04:59:53.680Z,1020.30
2019-02-05T05:00:53.660Z,1020.38
2019-02-05T05:01:53.647Z,1020.40
2019-02-05T05:02:53.638Z,1020.39
2019-02-05T05:03:53.624Z,1020.40
2019-02-05T05:04:53.621Z,1020.41
2019-02-05T05:05:53.604Z,1020.38
2019-02-05T05:06:53.599Z,1020.45
2019-02-05T05:07:53.584Z,1020.42
2019-02-05T05:08:53.575Z,1020.38
2019-02-05T05:09:53.562Z,1020.38
2019-02-05T05:10:53.650Z,1020.39
2019-02-05T05:11:53.540Z,1020.43
2019-02-05T05:12:53.531Z,1020.42
2019-02-05T05:13:53.518Z,1020.43
2019-02-05T05:14:53.518Z,1020.48
2019-02-05T05:15:53.515Z,1020.45
2019-02-05T05:16:53.507Z,1020.37
2019-02-05T05:17:53.473Z,1020.36
2019-02-05T05:18:53.463Z,1020.33
2019-02-05T05:19:53.452Z,1020.28
2019-02-05T05:20:53.441Z,1020.29
2019-02-05T05:21:53.443Z,1020.33
2019-02-05T05:22:53.423Z,1020.31
2019-02-05T05:23:53.409Z,1020.27
2019-02-05T05:24:53.400Z,1020.25
2019-02-05T05:25:53.390Z,1020.28
2019-02-05T05:26:53.376Z,1020.27
2019-02-05T05:27:53.373Z,1020.31
2019-02-05T05:28:53.355Z,1020.30
2019-02-05T05:29:53.348Z,1020.32
2019-02-05T05:30:53.337Z,1020.33
2019-02-05T05:31:53.330Z,1020.37
2019-02-05T05:32:53.312Z,1020.33
2019-02-05T05:33:53.309Z,1020.32
2019-02-05T05:34:53.291Z,1020.31
2019-02-05T05:35:53.292Z,1020.32
2019-02-05T05:36:53.273Z,1020.26
2019-02-05T05:37:53.257Z,1020.29
2019-02-05T05:38:53.245Z,1020.24
2019-02-05T05:39:53.254Z,1020.28
2019-02-05T05:40:53.224Z,1020.27
2019-02-05T05:41:53.213Z,1020.19
2019-02-05T05:42:53.203Z,1020.15
2019-02-05T05:43:53.200Z,1020.15
2019-02-05T05:44:53.190Z,1020.11
2019-02-05T05:45:53.175Z,1020.14
2019-02-05T05:46:53.161Z,1020.09
2019-02-05T05:47:53.151Z,1020.08
2019-02-05T05:48:53.145Z,1020.05
2019-02-05T05:49:53.132Z,1020.05
2019-02-05T05:50:53.122Z,1020.00
2019-02-05T05:51:53.106Z,1020.03
2019-02-05T05:52:53.097Z,1020.00
2019-02-05T05:53:53.084Z,1020.04
2019-02-05T05:54:53.073Z,1020.01
2019-02-05T05:55:53.068Z,1019.99
2019-02-05T05:56:53.052Z,1020.00
2019-02-05T05:57:53.043Z,1019.95
2019-02-05T05:58:53.029Z,1019.95
2019-02-05T05:59:53.022Z,1019.97
2019-02-05T06:00:53.009Z,1019.98
2019-02-05T06:01:52.997Z,1020.03
2019-02-05T06:02:52.988Z,1020.06
2019-02-05T06:03:52.976Z,1020.06
2019-02-05T06:04:52.968Z,1020.10
2019-02-05T06:05:52.964Z,1020.09
2019-02-05T06:06:52.942Z,1020.12
2019-02-05T06:07:52.945Z,1020.12
2019-02-05T06:08:52.921Z,1020.11
2019-02-05T06:09:52.913Z,1020.14
2019-02-05T06:10:52.904Z,1020.16
2019-02-05T06:11:52.895Z,1020.12
2019-02-05T06:12:52.884Z,1020.13
2019-02-05T06:13:52.867Z,1020.12
2019-02-05T06:14:52.861Z,1020.10
2019-02-05T06:15:52.852Z,1020.13
2019-02-05T06:16:52.838Z,1020.18
2019-02-05T06:17:52.824Z,1020.18
2019-02-05T06:18:52.816Z,1020.22
2019-02-05T06:19:52.804Z,1020.23
2019-02-05T06:20:52.794Z,1020.20
2019-02-05T06:21:52.781Z,1020.25
2019-02-05T06:22:52.774Z,1020.28
2019-02-05T06:23:52.758Z,1020.29
2019-02-05T06:24:52.756Z,1020.29
2019-02-05T06:25:52.745Z,1020.38
2019-02-05T06:26:52.729Z,1020.38
2019-02-05T06:27:52.717Z,1020.39
2019-02-05T06:28:52.719Z,1020.30
2019-02-05T06:29:52.692Z,1020.32
2019-02-05T06:30:52.683Z,1020.31
2019-02-05T06:31:33.100Z,1020.30
2019-02-05T06:32:33.072Z,1020.29
2019-02-05T06:34:08.101Z,1020.27
2019-02-05T06:35:08.067Z,1020.32
2019-02-05T06:36:38.537Z,1020.29
2019-02-05T06:37:38.522Z,1020.27
2019-02-05T06:39:09.007Z,1020.27
2019-02-05T06:40:08.974Z,1020.31
2019-02-05T06:41:39.449Z,1020.33
2019-02-05T06:42:39.433Z,1020.31
2019-02-05T06:44:09.920Z,1020.32
2019-02-05T06:45:09.898Z,1020.36
2019-02-05T06:46:40.368Z,1020.30
2019-02-05T06:47:40.340Z,1020.32
2019-02-05T06:49:10.821Z,1020.32
2019-02-05T06:50:10.799Z,1020.33
2019-02-05T06:51:41.279Z,1020.35
2019-02-05T06:52:41.256Z,1020.35
2019-02-05T06:53:41.241Z,1020.36
2019-02-05T06:54:41.231Z,1020.34
2019-02-05T06:55:41.225Z,1020.37
2019-02-05T06:56:42.452Z,1020.33
2019-02-05T06:57:41.202Z,1020.32
2019-02-05T06:58:46.461Z,1020.37
2019-02-05T06:59:42.195Z,1020.42
2019-02-05T07:00:41.166Z,1020.37
2019-02-05T07:01:41.154Z,1020.36
2019-02-05T07:02:41.150Z,1020.38
2019-02-05T07:03:41.130Z,1020.41
2019-02-05T07:04:41.122Z,1020.44
2019-02-05T07:05:41.110Z,1020.46
2019-02-05T07:06:41.098Z,1020.45
2019-02-05T07:07:41.096Z,1020.46
2019-02-05T07:08:42.553Z,1020.52
2019-02-05T07:09:41.066Z,1020.56
2019-02-05T07:10:41.060Z,1020.57
2019-02-05T07:11:41.044Z,1020.54
2019-02-05T07:12:41.034Z,1020.55
2019-02-05T07:13:41.024Z,1020.58
2019-02-05T07:14:41.013Z,1020.64
2019-02-05T07:15:41.002Z,1020.57
2019-02-05T07:16:40.990Z,1020.56
2019-02-05T07:17:49.321Z,1020.61
2019-02-05T07:18:41.969Z,1020.63
2019-02-05T07:19:40.966Z,1020.66
2019-02-05T07:20:40.950Z,1020.70
2019-02-05T07:21:40.937Z,1020.67
2019-02-05T07:22:40.927Z,1020.64
2019-02-05T07:23:40.933Z,1020.67
2019-02-05T07:24:40.909Z,1020.69
2019-02-05T07:25:40.902Z,1020.71
2019-02-05T07:26:40.885Z,1020.72
2019-02-05T07:27:40.872Z,1020.69
2019-02-05T07:28:40.863Z,1020.72
2019-02-05T07:29:40.849Z,1020.71
2019-02-05T07:30:40.841Z,1020.75
2019-02-05T07:31:40.830Z,1020.80
2019-02-05T07:32:40.820Z,1020.76
2019-02-05T07:33:40.807Z,1020.80
2019-02-05T07:34:40.800Z,1020.74
2019-02-05T07:35:40.786Z,1020.77
2019-02-05T07:36:40.783Z,1020.76
2019-02-05T07:37:40.764Z,1020.77
2019-02-05T07:38:40.761Z,1020.76
2019-02-05T07:39:40.743Z,1020.80
2019-02-05T07:40:40.739Z,1020.77
2019-02-05T07:41:40.726Z,1020.84
2019-02-05T07:42:40.718Z,1020.83
2019-02-05T07:43:40.701Z,1020.81
2019-02-05T07:44:40.697Z,1020.81
2019-02-05T07:45:40.675Z,1020.77
2019-02-05T07:46:40.664Z,1020.76
2019-02-05T07:47:40.665Z,1020.83
2019-02-05T07:48:40.649Z,1020.80
2019-02-05T07:49:40.631Z,1020.78
2019-02-05T07:50:40.626Z,1020.79
2019-02-05T07:51:40.611Z,1020.82
2019-02-05T07:52:40.602Z,1020.89
2019-02-05T07:53:40.592Z,1020.82
2019-02-05T07:54:40.578Z,1020.84
2019-02-05T07:55:40.573Z,1020.86
2019-02-05T07:56:40.557Z,1020.79
2019-02-05T07:57:40.558Z,1020.82
2019-02-05T07:58:40.540Z,1020.83
2019-02-05T07:59:40.531Z,1020.86
2019-02-05T08:00:40.512Z,1020.85
2019-02-05T08:01:40.503Z,1020.85
2019-02-05T08:02:40.491Z,1020.78
2019-02-05T08:03:40.491Z,1020.82
2019-02-05T08:04:40.471Z,1020.83
2019-02-05T08:05:40.458Z,1020.89
2019-02-05T08:06:40.450Z,1020.82
2019-02-05T08:07:40.438Z,1020.81
2019-02-05T08:08:40.426Z,1020.89
2019-02-05T08:09:40.429Z,1020.84
2019-02-05T08:10:40.419Z,1020.82
2019-02-05T08:11:41.421Z,1020.82
2019-02-05T08:12:40.383Z,1020.84
2019-02-05T08:13:40.376Z,1020.90
2019-02-05T08:14:40.367Z,1020.92
2019-02-05T08:15:40.359Z,1020.93
2019-02-05T08:16:40.347Z,1020.97
2019-02-05T08:17:40.327Z,1020.90
2019-02-05T08:18:40.318Z,1020.96
2019-02-05T08:19:40.308Z,1020.96
2019-02-05T08:20:40.296Z,1020.93
2019-02-05T08:21:40.283Z,1020.93
2019-02-05T08:22:40.275Z,1020.92
2019-02-05T08:23:40.276Z,1020.90
2019-02-05T08:24:40.266Z,1020.92
2019-02-05T08:25:40.241Z,1020.94
2019-02-05T08:26:40.229Z,1020.92
2019-02-05T08:27:40.226Z,1020.90
2019-02-05T08:28:41.157Z,1020.91
2019-02-05T08:29:40.198Z,1020.93
2019-02-05T08:30:40.192Z,1020.94
2019-02-05T08:31:40.189Z,1020.94
2019-02-05T08:32:40.169Z,1020.93
2019-02-05T08:33:40.173Z,1020.91
2019-02-05T08:34:40.262Z,1020.86
2019-02-05T08:35:40.134Z,1020.87
2019-02-05T08:36:40.121Z,1020.88
2019-02-05T08:37:40.120Z,1020.90
2019-02-05T08:38:40.103Z,1020.94
2019-02-05T08:39:40.088Z,1020.91
2019-02-05T08:40:40.080Z,1020.91
2019-02-05T08:41:40.070Z,1020.90
2019-02-05T08:42:40.063Z,1020.89
2019-02-05T08:43:40.048Z,1020.90
2019-02-05T08:44:40.043Z,1020.99
2019-02-05T08:45:40.027Z,1020.96
2019-02-05T08:46:40.020Z,1020.94
2019-02-05T08:47:40.000Z,1020.94
2019-02-05T08:48:39.996Z,1020.95
2019-02-05T08:49:39.984Z,1020.94
2019-02-05T08:50:39.990Z,1020.91
2019-02-05T08:51:39.967Z,1020.88
2019-02-05T08:52:39.952Z,1020.88
2019-02-05T08:53:39.936Z,1020.92
2019-02-05T08:54:39.925Z,1020.97
2019-02-05T08:55:39.918Z,1021.00
2019-02-05T08:56:39.909Z,1020.96
2019-02-05T08:57:39.893Z,1020.94
2019-02-05T08:58:39.882Z,1020.98
2019-02-05T08:59:39.875Z,1020.99
2019-02-05T09:00:39.861Z,1020.99
2019-02-05T09:01:39.869Z,1021.05
2019-02-05T09:02:39.839Z,1021.03
2019-02-05T09:03:39.827Z,1021.06
2019-02-05T09:04:39.830Z,1021.00
2019-02-05T09:05:39.818Z,1021.02
2019-02-05T09:06:39.801Z,1021.04
2019-02-05T09:07:39.795Z,1021.11
2019-02-05T09:08:39.775Z,1021.03
2019-02-05T09:09:39.763Z,1021.11
2019-02-05T09:10:39.753Z,1021.17
2019-02-05T09:11:39.742Z,1021.12
2019-02-05T09:12:39.735Z,1021.16
2019-02-05T09:13:39.723Z,1021.20
2019-02-05T09:14:39.709Z,1021.16
2019-02-05T09:15:39.699Z,1021.19
2019-02-05T09:16:39.688Z,1021.14
2019-02-05T09:17:39.684Z,1021.22
2019-02-05T09:18:39.681Z,1021.27
2019-02-05T09:19:39.685Z,1021.26
2019-02-05T09:20:39.643Z,1021.26
2019-02-05T09:21:39.651Z,1021.25
2019-02-05T09:22:39.624Z,1021.32
2019-02-05T09:23:39.622Z,1021.31
2019-02-05T09:24:39.604Z,1021.24
2019-02-05T09:25:39.596Z,1021.33
2019-02-05T09:26:39.583Z,1021.20
2019-02-05T09:27:39.568Z,1021.14
2019-02-05T09:28:39.560Z,1021.25
2019-02-05T09:29:39.547Z,1021.25
2019-02-05T09:30:39.554Z,1021.29
2019-02-05T09:31:39.564Z,1021.29
2019-02-05T09:32:39.807Z,1021.26
2019-02-05T09:33:39.596Z,1021.22
2019-02-05T09:34:40.836Z,1021.24
2019-02-05T09:35:39.488Z,1021.28
2019-02-05T09:36:39.481Z,1021.26
2019-02-05T09:37:39.460Z,1021.30
2019-02-05T09:38:39.488Z,1021.26
2019-02-05T09:39:39.444Z,1021.17
2019-02-05T09:40:39.436Z,1021.17
2019-02-05T09:41:39.418Z,1021.27
2019-02-05T09:42:39.418Z,1021.37
2019-02-05T09:43:39.666Z,1021.38
2019-02-05T09:44:39.645Z,1021.34
2019-02-05T09:45:39.398Z,1021.29
2019-02-05T09:46:39.380Z,1021.25
2019-02-05T09:47:39.358Z,1021.20
2019-02-05T09:48:39.351Z,1021.25
2019-02-05T09:49:39.331Z,1021.25
2019-02-05T09:50:44.792Z,1021.24
2019-02-05T09:51:40.314Z,1021.28
2019-02-05T09:52:39.312Z,1021.31
2019-02-05T09:53:39.288Z,1021.28
2019-02-05T09:54:39.286Z,1021.26
2019-02-05T09:55:39.271Z,1021.27
2019-02-05T09:56:39.261Z,1021.23
2019-02-05T09:57:39.244Z,1021.26
2019-02-05T09:58:39.249Z,1021.33
2019-02-05T09:59:45.475Z,1021.38
2019-02-05T10:00:40.216Z,1021.37
2019-02-05T10:01:39.207Z,1021.39
2019-02-05T10:02:39.191Z,1021.41
2019-02-05T10:03:39.190Z,1021.38
2019-02-05T10:04:39.195Z,1021.39
2019-02-05T10:05:39.162Z,1021.40
2019-02-05T10:06:39.159Z,1021.40
2019-02-05T10:07:39.145Z,1021.42
2019-02-05T10:08:39.187Z,1021.43
2019-02-05T10:09:39.129Z,1021.44
2019-02-05T10:10:39.118Z,1021.40
2019-02-05T10:11:39.105Z,1021.46
2019-02-05T10:12:39.086Z,1021.48
2019-02-05T10:13:39.079Z,1021.48
2019-02-05T10:14:39.083Z,1021.51
2019-02-05T10:15:39.062Z,1021.55
2019-02-05T10:16:39.048Z,1021.52
2019-02-05T10:17:39.038Z,1021.56
2019-02-05T10:18:39.051Z,1021.59
2019-02-05T10:19:39.019Z,1021.54
2019-02-05T10:20:39.004Z,1021.53
2019-02-05T10:21:38.991Z,1021.55
2019-02-05T10:22:38.985Z,1021.54
2019-02-05T10:23:38.968Z,1021.49
2019-02-05T10:24:38.964Z,1021.50
2019-02-05T10:25:39.085Z,1021.56
2019-02-05T10:26:38.943Z,1021.54
2019-02-05T10:27:38.926Z,1021.49
2019-02-05T10:28:38.914Z,1021.47
2019-02-05T10:29:38.901Z,1021.48
2019-02-05T10:30:38.908Z,1021.49
2019-02-05T10:31:38.877Z,1021.45
2019-02-05T10:32:38.880Z,1021.44
2019-02-05T10:33:38.857Z,1021.40
2019-02-05T10:34:38.845Z,1021.44
2019-02-05T10:35:38.837Z,1021.45
2019-02-05T10:36:38.830Z,1021.40
2019-02-05T10:37:38.822Z,1021.44
2019-02-05T10:38:38.805Z,1021.46
2019-02-05T10:39:38.790Z,1021.46
2019-02-05T10:40:38.782Z,1021.50
2019-02-05T10:41:38.780Z,1021.46
2019-02-05T10:42:38.756Z,1021.46
2019-02-05T10:43:38.746Z,1021.48
2019-02-05T10:44:38.734Z,1021.48
2019-02-05T10:45:38.724Z,1021.47
2019-02-05T10:46:38.714Z,1021.55
2019-02-05T10:47:38.704Z,1021.47
2019-02-05T10:48:38.692Z,1021.47
2019-02-05T10:49:38.684Z,1021.39
2019-02-05T10:50:38.669Z,1021.37
2019-02-05T10:51:38.660Z,1021.37
2019-02-05T10:52:38.648Z,1021.41
2019-02-05T10:53:38.652Z,1021.40
2019-02-05T10:54:38.631Z,1021.39
2019-02-05T10:55:38.622Z,1021.42
2019-02-05T10:56:38.603Z,1021.47
2019-02-05T10:57:38.595Z,1021.46
2019-02-05T10:58:38.582Z,1021.45
2019-02-05T10:59:38.572Z,1021.46
2019-02-05T19:08:28.435Z,1022.70
2019-02-05T19:09:28.118Z,1022.72
2019-02-05T19:10:58.737Z,1022.73
2019-02-05T19:12:01.750Z,1022.68
2019-02-05T19:13:30.079Z,1022.70
2019-02-05T19:14:30.046Z,1022.69
2019-02-05T19:16:04.574Z,1022.74
2019-02-05T19:17:01.115Z,1022.71
2019-02-05T19:18:31.049Z,1022.72
2019-02-05T19:19:30.955Z,1022.72
2019-02-05T19:21:03.072Z,1022.74
2019-02-05T19:22:01.844Z,1022.78
2019-02-05T19:23:32.025Z,1022.80
2019-02-05T19:24:31.895Z,1022.81
2019-02-05T19:26:02.379Z,1022.78
2019-02-05T19:27:02.357Z,1022.83
2019-02-05T19:28:32.923Z,1022.83
2019-02-05T19:29:32.932Z,1022.84
2019-02-05T19:31:03.299Z,1022.82
2019-02-05T19:32:03.275Z,1022.79
2019-02-05T19:33:33.776Z,1022.87
2019-02-05T19:34:33.742Z,1022.80
2019-02-05T19:36:09.515Z,1022.82
2019-02-05T19:37:09.496Z,1022.76
2019-02-05T19:38:44.618Z,1022.80
2019-02-05T19:39:44.560Z,1022.87
2019-02-05T19:41:16.815Z,1022.80
2019-02-05T19:42:15.048Z,1022.78
2019-02-05T19:43:45.606Z,1022.81
2019-02-05T19:44:48.401Z,1022.80
2019-02-05T19:46:16.971Z,1022.82
2019-02-05T19:47:16.989Z,1022.85
2019-02-05T19:48:49.088Z,1022.85
2019-02-05T19:49:47.423Z,1022.87
2019-02-05T19:51:17.971Z,1022.86
2019-02-05T19:52:17.912Z,1022.90
2019-02-05T19:53:50.174Z,1022.91
2019-02-05T19:54:50.220Z,1022.90
2019-02-05T19:56:20.773Z,1022.94
2019-02-05T19:57:20.588Z,1022.88
2019-02-05T19:58:51.035Z,1022.91
2019-02-05T19:59:50.987Z,1022.93
2019-02-05T20:01:21.500Z,1022.90
2019-02-05T20:02:21.542Z,1022.92
2019-02-05T20:03:51.979Z,1022.96
2019-02-05T20:04:51.980Z,1022.90
2019-02-05T20:06:22.431Z,1022.93
2019-02-05T20:07:22.428Z,1022.88
2019-02-05T20:08:52.912Z,1022.91
2019-02-05T20:09:52.872Z,1022.88
2019-02-05T20:11:27.589Z,1022.87
2019-02-05T20:12:27.588Z,1022.86
2019-02-05T20:13:27.566Z,1022.90
2019-02-05T20:14:27.551Z,1022.89
2019-02-05T20:15:27.542Z,1022.88
2019-02-05T20:16:27.539Z,1022.87
2019-02-05T20:17:27.551Z,1022.90
2019-02-05T20:18:27.831Z,1022.92
2019-02-05T20:19:27.504Z,1022.89
2019-02-05T20:20:27.500Z,1022.91
2019-02-05T20:21:27.480Z,1022.94
2019-02-05T20:22:27.511Z,1022.98
2019-02-05T20:23:27.460Z,1022.95
2019-02-05T20:24:27.447Z,1022.97
2019-02-05T20:25:27.458Z,1022.97
2019-02-05T20:26:27.422Z,1022.99
2019-02-05T20:27:27.413Z,1022.98
2019-02-05T20:28:27.404Z,1023.01
2019-02-05T20:29:27.395Z,1023.05
2019-02-05T20:30:27.384Z,1022.99